Time;durP1;ratioP1;P1;durP2;ratioP2;P2;SDS_P1;SDS_P2;PMS_P1;PMS_P2;Temp;Humidity;BMP_temperature;BMP_pressure;BME280_temperature;BME280_humidity;BME280_pressure;Samples;Min_cycle;Max_cycle;Signal;HPM_P1;HPM_P2
2024/04/13 00:04:55;;;;;;;11.80;8.20;;;;;;;16.05;90.17;101001.06;671830;1266;139513;-79
2024/04/13 00:19:59;;;;;;;11.50;7.70;;;;;;;15.84;91.17;100990.17;674876;1266;139975;-80
2024/04/13 00:35:04;;;;;;;15.90;8.30;;;;;;;15.56;91.18;100970.66;672681;1267;139868;-80
2024/04/13 00:50:13;;;;;;;15.80;8.50;;;;;;;15.29;92.74;100957.58;674386;1267;139971;-80
2024/04/13 01:05:18;;;;;;;16.20;10.20;;;;;;;15.05;94.21;100946.37;673585;1268;139740;-79
2024/04/13 01:20:21;;;;;;;261.90;97.10;;;;;;;14.91;94.90;100933.95;678044;1268;140044;-80
2024/04/13 01:35:24;;;;;;;26.00;11.80;;;;;;;14.82;95.77;100938.13;678122;1268;140056;-80
2024/04/13 01:50:27;;;;;;;24.80;11.70;;;;;;;14.76;96.41;100940.95;676229;1268;141961;-80
2024/04/13 02:05:34;;;;;;;20.30;10.90;;;;;;;14.76;97.02;100944.19;679250;1267;140022;-80
2024/04/13 02:20:37;;;;;;;18.40;10.70;;;;;;;14.72;96.75;100940.98;675261;1266;139873;-80
2024/04/13 02:35:41;;;;;;;15.70;9.70;;;;;;;14.69;97.26;100924.92;676295;1268;139548;-80
2024/04/13 02:50:44;;;;;;;19.70;11.20;;;;;;;14.63;97.41;100923.56;677986;1265;140456;-80
2024/04/13 03:06:05;;;;;;;24.00;12.90;;;;;;;14.47;96.71;100920.65;676071;1266;139430;-80
2024/04/13 03:21:08;;;;;;;21.10;11.20;;;;;;;14.30;97.99;100914.80;677097;1268;139869;-80
2024/04/13 03:36:12;;;;;;;24.30;13.60;;;;;;;14.27;99.22;100908.48;675356;1266;139725;-79
2024/04/13 03:51:15;;;;;;;20.10;11.40;;;;;;;14.13;100.00;100900.25;677163;1262;139648;-80
2024/04/13 04:06:19;;;;;;;22.90;13.00;;;;;;;14.09;99.99;100912.40;675303;1268;141037;-79
2024/04/13 04:21:24;;;;;;;27.70;12.60;;;;;;;14.19;100.00;100919.39;673663;1268;140248;-80
2024/04/13 04:36:28;;;;;;;19.40;11.80;;;;;;;14.35;100.00;100927.03;676133;1274;140054;-80
2024/04/13 04:51:31;;;;;;;22.20;12.90;;;;;;;14.60;100.00;100935.27;677351;1266;139696;-79
2024/04/13 05:06:34;;;;;;;23.00;13.00;;;;;;;14.97;99.68;100940.36;676504;1266;140223;-80
2024/04/13 05:21:39;;;;;;;21.80;13.20;;;;;;;15.30;98.29;100935.10;673990;1276;140874;-81
2024/04/13 05:36:45;;;;;;;18.50;10.90;;;;;;;15.27;96.30;100928.16;674034;1268;140060;-79
2024/04/13 05:51:48;;;;;;;20.50;11.20;;;;;;;15.55;94.38;100921.94;673557;1268;140300;-80
2024/04/13 06:06:51;;;;;;;20.90;12.90;;;;;;;16.56;92.71;100929.22;674409;1267;140733;-80
2024/04/13 06:21:55;;;;;;;20.00;11.80;;;;;;;15.87;93.05;100945.71;673554;1282;139630;-79
2024/04/13 06:36:58;;;;;;;19.90;10.80;;;;;;;17.17;93.35;100955.46;673918;1266;139737;-80
2024/04/13 06:52:01;;;;;;;21.60;13.60;;;;;;;18.81;84.11;100953.73;676278;1267;140544;-80
2024/04/13 07:07:04;;;;;;;19.20;8.10;;;;;;;17.19;82.18;100968.17;673564;1267;140883;-79
2024/04/13 07:22:07;;;;;;;12.20;6.30;;;;;;;18.04;80.21;100958.83;678215;1267;141639;-81
2024/04/13 07:37:10;;;;;;;11.90;6.10;;;;;;;17.58;78.06;100969.29;674824;1262;140230;-80
2024/04/13 07:52:13;;;;;;;10.60;5.30;;;;;;;17.17;77.89;100968.20;671175;1276;139567;-79
2024/04/13 08:07:16;;;;;;;9.90;5.80;;;;;;;16.94;78.33;100967.89;671312;1268;140561;-79
2024/04/13 08:22:19;;;;;;;9.30;5.90;;;;;;;17.37;78.87;100973.16;670708;1279;139524;-80
2024/04/13 08:37:23;;;;;;;21.40;10.70;;;;;;;17.88;78.46;100976.77;678485;1266;139376;-81
2024/04/13 08:52:27;;;;;;;27.80;7.60;;;;;;;18.31;77.09;100988.89;673571;1267;139784;-81
2024/04/13 09:07:34;;;;;;;10.50;6.10;;;;;;;18.60;76.54;100972.98;677516;1262;140518;-79
2024/04/13 09:22:39;;;;;;;17.00;8.70;;;;;;;19.89;75.55;100955.83;675566;1274;140225;-80
2024/04/13 09:37:42;;;;;;;12.90;6.20;;;;;;;20.08;73.96;100980.83;677358;1264;140124;-80
2024/04/13 09:52:46;;;;;;;8.80;5.50;;;;;;;20.67;73.41;100961.39;678647;1267;140370;-79
2024/04/13 10:07:50;;;;;;;7.90;4.40;;;;;;;22.02;70.54;100958.38;678854;1267;204515;-86
2024/04/13 10:23:01;;;;;;;14.90;9.00;;;;;;;22.12;67.50;100947.65;677592;1278;139089;-80
2024/04/13 10:38:13;;;;;;;14.90;4.40;;;;;;;23.46;66.70;100932.20;677974;1262;138731;-80
2024/04/13 10:53:18;;;;;;;11.60;4.70;;;;;;;23.21;65.10;100944.10;675114;1262;139237;-81
2024/04/13 11:08:23;;;;;;;11.70;5.00;;;;;;;22.90;64.57;100935.82;676769;1261;140304;-81
2024/04/13 11:23:27;;;;;;;17.50;5.90;;;;;;;23.72;64.45;100899.83;678786;1265;139954;-79
2024/04/13 11:38:34;;;;;;;11.20;4.70;;;;;;;23.15;64.00;100895.59;679544;1265;138679;-79
2024/04/13 11:53:38;;;;;;;9.80;4.50;;;;;;;22.29;62.95;100898.41;677902;1265;139296;-79
2024/04/13 12:08:42;;;;;;;10.10;4.00;;;;;;;22.85;62.22;100876.65;677473;1280;139985;-81
2024/04/13 12:23:45;;;;;;;34.20;4.80;;;;;;;23.74;60.77;100878.90;677850;1261;139634;-79
2024/04/13 12:38:48;;;;;;;8.90;3.40;;;;;;;24.10;58.47;100869.77;678045;1263;139121;-81
2024/04/13 12:53:51;;;;;;;14.30;5.50;;;;;;;24.30;57.56;100850.22;677965;1262;138295;-83
2024/04/13 13:08:55;;;;;;;8.30;5.30;;;;;;;24.02;56.48;100841.23;676790;1265;140479;-81
2024/04/13 13:23:58;;;;;;;14.70;5.80;;;;;;;23.58;57.90;100833.67;677994;1265;139195;-80
2024/04/13 13:39:01;;;;;;;25.20;11.70;;;;;;;23.38;58.29;100826.57;680034;1265;139091;-80
2024/04/13 13:54:05;;;;;;;42.80;25.20;;;;;;;22.56;58.63;100815.40;680872;1265;140890;-80
2024/04/13 14:12:11;;;;;;;8.70;4.30;;;;;;;21.79;60.37;100804.82;659192;1300;545224;-80
2024/04/13 14:27:14;;;;;;;23.70;13.20;;;;;;;22.53;57.86;100802.68;676138;1272;138429;-79
2024/04/13 14:42:18;;;;;;;67.80;23.10;;;;;;;22.17;56.56;100780.71;675860;1271;138497;-81
2024/04/13 14:57:21;;;;;;;66.10;32.80;;;;;;;21.75;56.42;100783.77;672824;1274;138638;-80
2024/04/13 15:12:24;;;;;;;23.30;7.40;;;;;;;21.63;56.46;100768.25;670146;1270;138013;-85
2024/04/13 15:27:28;;;;;;;20.10;13.20;;;;;;;21.61;56.17;100748.61;675221;1275;140140;-85
2024/04/13 15:42:31;;;;;;;15.80;5.40;;;;;;;21.48;55.62;100740.76;675817;1275;139631;-81
2024/04/13 15:57:34;;;;;;;16.00;6.90;;;;;;;21.45;55.84;100745.61;672903;1275;139627;-81
2024/04/13 16:12:38;;;;;;;46.10;24.90;;;;;;;21.21;56.23;100738.50;670004;1275;137964;-83
2024/04/13 16:27:41;;;;;;;33.30;20.30;;;;;;;21.20;57.27;100727.42;669699;1275;138591;-80
2024/04/13 16:42:45;;;;;;;37.80;15.80;;;;;;;21.49;57.55;100718.34;669744;1275;139946;-82
2024/04/13 16:57:48;;;;;;;18.30;8.40;;;;;;;21.05;57.32;100706.48;671384;1275;140251;-82
2024/04/13 17:12:51;;;;;;;21.30;12.00;;;;;;;20.27;58.11;100690.06;673674;1272;139007;-82
2024/04/13 17:27:55;;;;;;;57.10;37.80;;;;;;;19.54;60.41;100681.13;673354;1274;138917;-83
2024/04/13 17:43:00;;;;;;;65.90;35.00;;;;;;;18.81;61.61;100670.86;675659;1263;139236;-82
2024/04/13 17:58:03;;;;;;;44.50;24.00;;;;;;;18.18;62.69;100650.67;676946;1266;139042;-81
2024/04/13 18:13:06;;;;;;;30.40;22.20;;;;;;;17.72;63.59;100648.93;674258;1269;139681;-83
2024/04/13 18:28:10;;;;;;;50.70;24.30;;;;;;;17.27;64.89;100650.80;671617;1267;138897;-81
2024/04/13 18:43:13;;;;;;;150.20;57.40;;;;;;;16.93;66.11;100649.17;678584;1266;140164;-81
2024/04/13 18:58:16;;;;;;;205.10;65.90;;;;;;;16.55;67.54;100629.61;678440;1265;139905;-84
2024/04/13 19:25:00;;;;;;;189.00;59.60;;;;;;;16.10;69.13;100615.82;658703;1298;545118;-83
2024/04/13 19:40:06;;;;;;;419.80;119.50;;;;;;;15.96;69.98;100609.05;669475;1274;140004;-83
2024/04/13 19:55:10;;;;;;;112.90;38.60;;;;;;;15.76;71.50;100597.70;670789;1272;140602;-81
2024/04/13 20:10:15;;;;;;;57.20;24.30;;;;;;;15.58;73.11;100593.78;667473;1274;139610;-81
2024/04/13 20:25:19;;;;;;;41.10;19.60;;;;;;;15.56;75.23;100581.94;671518;1274;138877;-81
2024/04/13 20:40:23;;;;;;;82.60;29.10;;;;;;;15.74;75.94;100560.96;667132;1275;139344;-81
2024/04/13 20:55:26;;;;;;;23.90;11.20;;;;;;;15.86;76.85;100540.63;673720;1273;138536;-83
2024/04/13 21:10:30;;;;;;;22.60;11.50;;;;;;;16.01;77.46;100530.88;670015;1275;139630;-81
2024/04/13 21:25:37;;;;;;;55.40;27.30;;;;;;;15.97;77.56;100510.70;671252;1271;138739;-81
2024/04/13 21:40:41;;;;;;;16.90;9.80;;;;;;;15.90;79.09;100496.61;667786;1275;138984;-83
2024/04/13 21:55:45;;;;;;;18.20;9.00;;;;;;;15.92;80.07;100484.25;668337;1276;140450;-83
2024/04/13 22:10:48;;;;;;;17.60;9.00;;;;;;;15.94;81.03;100461.99;668151;1275;139830;-84
2024/04/13 22:37:06;;;;;;;18.70;9.30;;;;;;;16.10;82.15;100433.73;652449;1299;545083;-82
2024/04/13 22:52:09;;;;;;;17.00;9.40;;;;;;;15.87;83.83;100409.42;668559;1284;139774;-82
2024/04/13 23:07:13;;;;;;;18.70;8.90;;;;;;;15.78;84.64;100388.64;666849;1270;139505;-81
2024/04/13 23:22:16;;;;;;;16.80;8.10;;;;;;;15.75;85.78;100358.45;666425;1277;140357;-82
2024/04/13 23:37:19;;;;;;;18.50;9.70;;;;;;;15.80;85.99;100345.13;667288;1276;138916;-81
2024/04/13 23:52:22;;;;;;;17.20;9.90;;;;;;;16.01;84.83;100328.58;666905;1276;139226;-80
